createdAt,value
2023-03-26T00:56:35.904Z,25.00
2023-03-26T01:00:36.808Z,25.00
2023-03-26T01:04:36.970Z,0.00
2023-03-26T01:08:36.750Z,1.49
2023-03-26T01:12:36.930Z,25.47
2023-03-26T01:16:36.866Z,25.00
2023-03-26T01:20:36.836Z,27.51
2023-03-26T01:24:36.791Z,25.88
2023-03-26T01:28:36.779Z,25.00
2023-03-26T01:32:36.780Z,27.59
2023-03-26T01:36:36.720Z,26.16
2023-03-26T01:40:36.656Z,27.64
2023-03-26T01:44:36.866Z,28.29
2023-03-26T01:48:37.017Z,27.78
2023-03-26T01:52:37.269Z,28.11
2023-03-26T01:56:37.432Z,28.37
2023-03-26T02:00:37.644Z,28.61
2023-03-26T02:04:37.826Z,25.98
2023-03-26T02:08:38.043Z,29.12
2023-03-26T02:12:38.239Z,29.69
2023-03-26T02:16:38.504Z,25.00
2023-03-26T02:20:38.649Z,28.76
2023-03-26T02:24:38.844Z,28.42
2023-03-26T02:32:38.284Z,25.99
2023-03-26T02:40:38.638Z,30.31
2023-03-26T02:48:39.050Z,28.77
2023-03-26T02:56:39.442Z,29.74
2023-03-26T18:41:18.520Z,33.35
2023-03-26T18:45:19.696Z,29.99
2023-03-26T18:49:19.922Z,34.51
2023-03-26T18:53:20.116Z,31.79
2023-03-26T18:57:20.382Z,30.48
2023-03-26T19:01:25.823Z,32.55
2023-03-26T19:05:20.496Z,29.02
2023-03-26T19:09:31.662Z,31.41
2023-03-26T19:13:20.401Z,28.30
2023-03-26T19:17:20.359Z,28.74
2023-03-26T19:21:20.352Z,28.89
2023-03-26T19:25:20.303Z,32.85
2023-03-26T19:29:20.248Z,35.35
2023-03-26T19:33:20.236Z,34.63
2023-03-26T19:37:20.205Z,34.38
2023-03-26T19:41:20.293Z,31.34
2023-03-26T19:45:20.497Z,35.53
2023-03-26T19:49:20.720Z,32.13
2023-03-26T19:53:20.673Z,25.75
2023-03-26T19:57:20.645Z,32.33
2023-03-26T20:01:20.589Z,28.39
2023-03-26T20:05:20.534Z,30.56
2023-03-26T20:09:20.522Z,34.10
2023-03-26T20:13:20.460Z,34.79
2023-03-26T20:17:20.518Z,31.36
2023-03-26T20:21:20.686Z,34.55
2023-03-26T20:25:20.940Z,31.69
2023-03-26T20:29:21.117Z,31.11
2023-03-26T20:33:21.133Z,33.42
2023-03-26T20:37:21.489Z,36.96
2023-03-26T20:41:21.001Z,33.67
2023-03-26T20:45:20.937Z,31.74
2023-03-26T20:49:20.905Z,32.05
2023-03-26T20:53:20.924Z,33.29
2023-03-26T20:57:20.960Z,37.20
2023-03-26T21:01:20.905Z,33.84
2023-03-26T21:05:20.748Z,35.29
2023-03-26T21:09:20.713Z,40.72
2023-03-26T21:13:20.695Z,35.53
2023-03-26T21:17:20.658Z,32.78
2023-03-26T21:21:21.609Z,35.64
2023-03-26T21:25:20.568Z,35.83
2023-03-26T21:29:20.820Z,35.01
2023-03-26T21:33:20.703Z,39.67
2023-03-26T21:37:20.663Z,40.06
2023-03-26T21:41:20.633Z,40.16
2023-03-26T21:45:20.622Z,35.83
2023-03-26T21:49:20.563Z,37.24
2023-03-26T21:53:20.521Z,37.21
2023-03-26T21:57:20.577Z,39.04
2023-03-26T22:01:20.848Z,36.12
2023-03-26T22:09:30.017Z,38.30
2023-03-26T22:13:20.681Z,39.14
2023-03-26T22:17:20.667Z,36.32
2023-03-26T22:21:20.829Z,43.02
2023-03-26T22:25:21.042Z,39.19
2023-03-26T22:29:21.259Z,35.25
2023-03-26T22:33:21.504Z,38.20
2023-03-26T22:37:21.686Z,37.09
2023-03-26T22:41:21.904Z,36.78
2023-03-26T22:45:22.142Z,38.53
2023-03-26T23:56:23.980Z,25.00
